createdAt,value
2022-08-22T00:01:14.229Z,10.4
2022-08-22T00:02:30.519Z,10.9
2022-08-22T00:03:46.828Z,11.1
2022-08-22T00:05:03.109Z,9.2
2022-08-22T00:06:19.415Z,8.8
2022-08-22T00:07:35.715Z,10.6
2022-08-22T00:08:51.991Z,9.2
2022-08-22T00:10:07.313Z,10.2
2022-08-22T00:11:23.602Z,9.1
2022-08-22T00:12:38.921Z,10.1
2022-08-22T00:13:55.204Z,10.9
2022-08-22T00:15:11.502Z,11.2
2022-08-22T00:16:27.813Z,10.1
2022-08-22T00:19:00.388Z,10.8
2022-08-22T00:20:16.692Z,9
2022-08-22T00:21:32.979Z,12.3
2022-08-22T00:22:49.272Z,11.2
2022-08-22T00:24:05.572Z,10.4
2022-08-22T00:25:21.857Z,9.7
2022-08-22T00:26:38.149Z,10.3
2022-08-22T00:27:54.448Z,12
2022-08-22T00:29:09.756Z,10.4
2022-08-22T00:30:26.058Z,10.6
2022-08-22T00:31:42.352Z,10.4
2022-08-22T00:32:58.638Z,10
2022-08-22T00:34:14.933Z,12.1
2022-08-22T00:35:31.235Z,11.1
2022-08-22T00:36:47.532Z,11.1
2022-08-22T00:38:02.846Z,10.6
2022-08-22T00:39:18.149Z,11.1
2022-08-22T00:41:50.744Z,10.6
2022-08-22T00:43:07.040Z,11.4
2022-08-22T00:44:23.317Z,12.5
2022-08-22T00:45:39.619Z,10.8
2022-08-22T00:46:55.906Z,9.4
2022-08-22T00:48:12.203Z,10.2
2022-08-22T00:49:28.514Z,10.1
2022-08-22T00:50:44.808Z,10.7
2022-08-22T00:52:01.084Z,13.3
2022-08-22T00:53:17.394Z,11.3
2022-08-22T00:54:33.690Z,12.7
2022-08-22T00:57:05.284Z,12.8
2022-08-22T00:58:21.580Z,10.7
2022-08-22T00:59:36.895Z,10.9
2022-08-22T01:00:52.200Z,12.6
2022-08-22T01:02:08.501Z,10.5
2022-08-22T01:03:24.789Z,10.3
2022-08-22T01:04:41.080Z,10.1
2022-08-22T01:05:57.390Z,10.8
2022-08-22T01:07:13.683Z,11.2
2022-08-22T01:08:29.977Z,12.1
2022-08-22T01:09:46.260Z,10.4
2022-08-22T01:11:02.555Z,9.3
2022-08-22T01:12:18.846Z,10.3
2022-08-22T01:13:34.166Z,9.8
2022-08-22T01:14:49.488Z,11.9
2022-08-22T01:16:05.782Z,11.1
2022-08-22T01:17:22.063Z,10.8
2022-08-22T01:18:38.351Z,11.6
2022-08-22T01:19:54.654Z,11.3
2022-08-22T01:21:10.940Z,11.7
2022-08-22T01:23:43.528Z,13.7
2022-08-22T01:24:59.840Z,12.4
2022-08-22T01:26:16.117Z,12.1
2022-08-22T01:27:32.423Z,12.6
2022-08-22T01:28:48.709Z,12.2
2022-08-22T01:30:05.001Z,10.1
2022-08-22T01:31:20.322Z,10.5
2022-08-22T01:32:36.610Z,10.9
2022-08-22T01:33:52.901Z,13.2
2022-08-22T01:35:09.201Z,11.1
2022-08-22T01:36:25.500Z,9.9
2022-08-22T01:37:41.794Z,11.8
2022-08-22T01:38:58.085Z,12.6
2022-08-22T01:40:14.384Z,12.7
2022-08-22T01:41:30.671Z,12
2022-08-22T01:42:46.965Z,14.8
2022-08-22T01:44:03.260Z,13.5
2022-08-22T01:45:19.557Z,15.8
2022-08-22T01:46:35.850Z,15.1
2022-08-22T01:47:51.153Z,15.9
2022-08-22T01:50:23.746Z,14.2
2022-08-22T01:51:40.043Z,15.5
2022-08-22T01:52:56.338Z,13.2
2022-08-22T01:54:12.634Z,14.9
2022-08-22T01:55:28.919Z,15.7
2022-08-22T01:56:45.213Z,15
2022-08-22T01:58:01.501Z,13.4
2022-08-22T01:59:17.797Z,15
2022-08-22T02:00:34.105Z,15.6
2022-08-22T02:01:50.392Z,13.2
2022-08-22T02:03:06.692Z,12.9
2022-08-22T02:05:38.297Z,16
2022-08-22T02:06:53.602Z,14.4
2022-08-22T02:08:09.898Z,13.5
2022-08-22T02:09:26.200Z,16.1
2022-08-22T02:10:42.500Z,12.8
2022-08-22T02:13:15.086Z,13
2022-08-22T02:14:31.380Z,13.2
2022-08-22T02:15:46.703Z,13.4
2022-08-22T02:17:02.005Z,14.2
2022-08-22T02:18:18.293Z,14.5
2022-08-22T02:19:34.595Z,14.6
2022-08-22T02:20:50.886Z,12.1
2022-08-22T02:22:07.178Z,14
2022-08-22T02:23:23.482Z,13.1
2022-08-22T02:25:56.063Z,14.2
2022-08-22T02:27:12.000Z,12.9
2022-08-22T02:28:28.661Z,11.9
2022-08-22T02:29:44.954Z,11.8
2022-08-22T02:31:01.246Z,12.3
2022-08-22T02:32:17.528Z,13
2022-08-22T02:33:32.833Z,12.8
2022-08-22T02:34:49.148Z,11.9
2022-08-22T02:36:05.434Z,13.1
2022-08-22T02:37:21.727Z,13.2
2022-08-22T02:38:38.029Z,15.8
2022-08-22T02:39:54.315Z,15.3
2022-08-22T02:41:10.601Z,14.4
2022-08-22T02:42:26.896Z,17.5
2022-08-22T02:43:42.212Z,15.6
2022-08-22T02:44:57.529Z,16.2
2022-08-22T02:46:13.833Z,16.3
2022-08-22T02:47:30.121Z,18
2022-08-22T02:48:46.408Z,13.4
2022-08-22T02:50:02.712Z,14.4
2022-08-22T02:51:18.989Z,14.3
2022-08-22T02:52:35.294Z,17.2
2022-08-22T02:53:51.580Z,15.5
2022-08-22T02:55:07.880Z,15.5
2022-08-22T02:56:24.170Z,14.6
2022-08-22T02:57:40.473Z,16.3
2022-08-22T02:58:56.769Z,15.2
2022-08-22T03:00:13.061Z,16.6
2022-08-22T03:01:28.359Z,16.5
2022-08-22T03:02:44.661Z,17.4
2022-08-22T03:04:00.953Z,19.3
2022-08-22T03:05:17.246Z,16.4
2022-08-22T03:06:33.539Z,18.2
2022-08-22T03:07:49.829Z,20
2022-08-22T03:09:06.129Z,18.5
2022-08-22T03:10:22.423Z,17.6
2022-08-22T03:11:38.715Z,18.5
2022-08-22T03:12:55.005Z,19.6
2022-08-22T03:14:11.301Z,19.8
2022-08-22T03:15:27.604Z,18.4
2022-08-22T03:18:00.180Z,19
2022-08-22T03:19:15.490Z,21.1
2022-08-22T03:20:31.792Z,19.3
2022-08-22T03:21:48.091Z,16.8
2022-08-22T03:23:04.387Z,17.2
2022-08-22T03:24:20.687Z,16.8
2022-08-22T03:25:36.981Z,17.7
2022-08-22T03:26:53.260Z,19
2022-08-22T03:29:25.810Z,18.7
2022-08-22T03:30:42.095Z,18.3
2022-08-22T03:31:58.345Z,18
2022-08-22T03:33:14.590Z,20.5
2022-08-22T03:34:30.823Z,19.6
2022-08-22T03:35:46.083Z,20.8
2022-08-22T03:37:02.319Z,19.4
2022-08-22T03:38:18.570Z,20.3
2022-08-22T03:39:34.806Z,20.6
2022-08-22T03:40:51.032Z,19.2
2022-08-22T03:42:07.281Z,19.2
2022-08-22T03:43:23.522Z,20.4
2022-08-22T03:44:39.756Z,18.5
2022-08-22T03:45:55.997Z,19.6
2022-08-22T03:47:12.233Z,18.6
2022-08-22T03:48:28.489Z,19.1
2022-08-22T03:49:44.726Z,18.3
2022-08-22T03:51:00.960Z,18.6
2022-08-22T03:52:16.225Z,22.7
2022-08-22T03:53:32.457Z,19.3
2022-08-22T03:54:48.691Z,20.7
2022-08-22T03:56:04.933Z,20.9
2022-08-22T03:57:21.178Z,20
2022-08-22T03:58:37.415Z,19.2
2022-08-22T03:59:53.654Z,18.8
2022-08-22T04:01:09.902Z,17.5
2022-08-22T04:02:26.135Z,17
2022-08-22T04:03:42.376Z,19.2
2022-08-22T04:04:58.621Z,21.5
2022-08-22T04:06:14.851Z,20.8
2022-08-22T04:07:31.098Z,21.7
2022-08-22T04:08:47.332Z,20.4
2022-08-22T04:10:02.600Z,21.1
2022-08-22T04:11:18.840Z,20.3
2022-08-22T04:15:07.549Z,21.2
2022-08-22T04:16:23.799Z,23
2022-08-22T04:17:40.044Z,21.2
2022-08-22T04:18:56.281Z,21.4
2022-08-22T04:21:28.755Z,23.2
2022-08-22T04:22:44.028Z,22.6
2022-08-22T04:24:00.262Z,20.6
2022-08-22T04:25:15.518Z,20.8
2022-08-22T04:26:31.749Z,21.3
2022-08-22T04:27:47.998Z,22
2022-08-22T04:30:20.486Z,21.7
2022-08-22T04:34:09.197Z,23.7
2022-08-22T04:35:25.446Z,21.7
2022-08-22T04:36:41.687Z,22.1
2022-08-22T04:37:57.926Z,22.1
2022-08-22T04:39:14.151Z,21.6
2022-08-22T04:40:29.417Z,21.9
2022-08-22T04:41:44.674Z,22.2
2022-08-22T04:43:00.909Z,21.1
2022-08-22T04:44:17.168Z,19.6
2022-08-22T04:46:49.630Z,23.1
2022-08-22T04:48:05.878Z,21.2
2022-08-22T04:49:22.126Z,22.7
2022-08-22T04:50:38.365Z,20.7
2022-08-22T04:51:54.599Z,19.2
2022-08-22T04:53:10.844Z,19.8
2022-08-22T04:55:43.316Z,21.3
2022-08-22T04:56:59.554Z,20.7
2022-08-22T04:58:14.827Z,20.5
2022-08-22T04:59:31.061Z,19.1
2022-08-22T05:00:47.291Z,20
2022-08-22T05:02:03.532Z,18.9
2022-08-22T05:03:19.769Z,20.5
2022-08-22T05:04:36.011Z,17.5
2022-08-22T05:05:52.248Z,18.8
2022-08-22T05:07:08.490Z,18.4
2022-08-22T05:08:24.731Z,19.2
2022-08-22T05:09:40.989Z,19.8
2022-08-22T05:10:57.212Z,18.8
2022-08-22T05:12:13.464Z,21.2
2022-08-22T05:13:28.713Z,21.1
2022-08-22T05:16:00.212Z,20.1
2022-08-22T05:17:16.462Z,21.4
2022-08-22T05:18:32.689Z,21.4
2022-08-22T05:19:48.936Z,20.8
2022-08-22T05:21:05.177Z,20
2022-08-22T05:22:21.419Z,19
2022-08-22T05:23:37.651Z,19
2022-08-22T05:24:53.892Z,19.8
2022-08-22T05:26:10.130Z,18.2
2022-08-22T05:27:26.369Z,18.4
2022-08-22T05:28:41.642Z,20
2022-08-22T05:31:13.129Z,19.3
2022-08-22T05:32:29.372Z,20.1
2022-08-22T05:33:45.623Z,17.3
2022-08-22T05:35:01.858Z,18.2
2022-08-22T05:36:18.105Z,19.5
2022-08-22T05:37:34.342Z,19.7
2022-08-22T05:38:50.581Z,19
2022-08-22T05:40:06.815Z,18.8
2022-08-22T05:41:23.052Z,20.3
2022-08-22T05:42:39.304Z,19.9
2022-08-22T05:43:55.536Z,19.4
2022-08-22T05:46:28.026Z,18
2022-08-22T05:47:43.263Z,17.8
2022-08-22T05:48:59.516Z,19.9
2022-08-22T05:50:15.755Z,20.4
2022-08-22T05:51:32.001Z,20.3
2022-08-22T05:54:04.464Z,18.7
2022-08-22T05:55:19.746Z,17.5
2022-08-22T05:56:35.985Z,20.1
2022-08-22T05:57:51.224Z,18.1
2022-08-22T05:59:07.471Z,17.4
2022-08-22T06:00:23.715Z,18
2022-08-22T06:01:39.948Z,17.6
2022-08-22T06:04:12.435Z,17.1
2022-08-22T06:05:28.678Z,18.3
2022-08-22T06:06:44.912Z,18
2022-08-22T06:09:17.403Z,19.2
2022-08-22T06:10:33.628Z,18.2
2022-08-22T06:11:48.894Z,17.3
2022-08-22T06:13:04.158Z,18.6
2022-08-22T06:14:20.389Z,18
2022-08-22T06:16:52.866Z,18.7
2022-08-22T06:18:09.120Z,16.9
2022-08-22T06:19:25.353Z,16
2022-08-22T06:20:41.582Z,17.6
2022-08-22T06:21:56.854Z,18.2
2022-08-22T06:23:13.095Z,17.1
2022-08-22T06:24:29.331Z,17.8
2022-08-22T06:25:45.575Z,17.3
2022-08-22T06:27:01.819Z,18.3
2022-08-22T06:28:18.044Z,16.7
2022-08-22T06:29:34.302Z,18.4
2022-08-22T06:32:06.764Z,17.8
2022-08-22T06:33:23.015Z,15.8
2022-08-22T06:34:39.257Z,15.5
2022-08-22T06:35:55.490Z,17.2
2022-08-22T06:37:11.726Z,15
2022-08-22T06:38:26.983Z,16
2022-08-22T06:39:43.235Z,17
2022-08-22T06:40:59.468Z,16.3
2022-08-22T06:42:15.722Z,15.9
2022-08-22T06:43:30.981Z,15.6
2022-08-22T06:44:46.220Z,15.1
2022-08-22T06:46:02.471Z,16.7
2022-08-22T06:47:18.704Z,15.3
2022-08-22T06:48:34.959Z,14.6
2022-08-22T06:49:51.188Z,15.3
2022-08-22T06:51:07.437Z,13.3
2022-08-22T06:52:23.669Z,14.7
2022-08-22T06:53:39.915Z,14.8
2022-08-22T06:54:56.152Z,13
2022-08-22T06:56:12.397Z,12.6
2022-08-22T06:57:27.649Z,14.2
2022-08-22T06:58:42.915Z,13
2022-08-22T06:59:59.157Z,13
2022-08-22T07:01:15.391Z,13.4
2022-08-22T07:02:31.636Z,12.7
2022-08-22T07:03:47.868Z,14.4
2022-08-22T07:05:04.101Z,14
2022-08-22T07:06:20.347Z,13.6
2022-08-22T07:07:36.589Z,16.4
2022-08-22T07:10:09.077Z,14.2
2022-08-22T07:11:25.320Z,15.1
2022-08-22T07:12:41.556Z,15.9
2022-08-22T07:13:57.792Z,15.3
2022-08-22T07:15:13.052Z,14
2022-08-22T07:16:29.283Z,13.9
2022-08-22T07:17:45.526Z,14.2
2022-08-22T07:19:01.769Z,14.3
2022-08-22T07:20:17.998Z,13.4
2022-08-22T07:21:34.236Z,15.3
2022-08-22T07:22:50.488Z,14.2
2022-08-22T07:24:06.730Z,12.4
2022-08-22T07:25:22.964Z,14.7
2022-08-22T07:26:39.201Z,12.8
2022-08-22T07:27:55.444Z,13.8
2022-08-22T07:29:11.683Z,12.8
2022-08-22T07:30:27.937Z,14.2
2022-08-22T07:33:00.398Z,16.9
2022-08-22T07:34:15.658Z,18.3
2022-08-22T07:35:31.904Z,15.7
2022-08-22T07:36:48.143Z,20.2
2022-08-22T07:38:04.385Z,15.1
2022-08-22T07:39:20.617Z,13.6
2022-08-22T07:40:36.856Z,14.9
2022-08-22T07:41:53.106Z,12.2
2022-08-22T07:43:09.345Z,12.9
2022-08-22T07:44:25.588Z,13.2
2022-08-22T07:45:41.827Z,13.1
2022-08-22T07:48:14.313Z,11.2
2022-08-22T07:49:30.536Z,12.9
2022-08-22T07:50:46.780Z,10.9
2022-08-22T07:53:18.274Z,11.1
2022-08-22T07:54:33.537Z,11.6
2022-08-22T07:55:48.793Z,11.8
2022-08-22T07:57:05.048Z,12.5
2022-08-22T07:58:21.274Z,12.1
2022-08-22T07:59:37.520Z,12.3
2022-08-22T08:00:53.758Z,11.3
2022-08-22T08:03:26.230Z,11.5
2022-08-22T08:04:42.482Z,12.4
2022-08-22T08:05:58.721Z,12
2022-08-22T08:07:14.956Z,10.5
2022-08-22T08:08:31.192Z,9.3
2022-08-22T08:11:03.678Z,10.9
2022-08-22T08:12:18.943Z,10.4
2022-08-22T08:13:34.198Z,9
2022-08-22T08:14:50.431Z,10.8
2022-08-22T08:16:06.668Z,8.5
2022-08-22T08:17:22.914Z,11.5
2022-08-22T08:18:39.155Z,9.7
2022-08-22T08:21:11.639Z,10
2022-08-22T08:22:27.882Z,9
2022-08-22T08:23:44.123Z,8.8
2022-08-22T08:26:16.597Z,8.3
2022-08-22T08:27:32.836Z,9.3
2022-08-22T08:28:49.083Z,8.2
2022-08-22T08:30:04.337Z,8.9
2022-08-22T08:31:20.570Z,8.5
2022-08-22T08:32:36.820Z,8.2
2022-08-22T08:33:53.056Z,7.3
2022-08-22T08:35:09.297Z,8.5
2022-08-22T08:36:25.525Z,8.2
2022-08-22T08:37:41.780Z,8.7
2022-08-22T08:38:58.009Z,9
2022-08-22T08:41:30.503Z,9.5
2022-08-22T08:42:46.745Z,9.1
2022-08-22T08:44:02.967Z,8.5
2022-08-22T08:45:19.221Z,10
2022-08-22T08:46:34.472Z,7.2
2022-08-22T08:47:50.712Z,7.8
2022-08-22T08:49:06.951Z,8.2
2022-08-22T08:50:23.189Z,8.8
2022-08-22T08:51:39.432Z,7.4
2022-08-22T08:52:54.691Z,9.5
2022-08-22T08:54:09.953Z,7
2022-08-22T08:55:26.194Z,7.8
2022-08-22T08:56:42.424Z,8.4
2022-08-22T08:57:58.663Z,8.5
2022-08-22T08:59:14.907Z,8.1
2022-08-22T09:00:31.152Z,6.1
2022-08-22T09:01:47.392Z,7.1
2022-08-22T09:04:19.857Z,6.8
2022-08-22T09:05:36.112Z,8.5
2022-08-22T09:06:52.351Z,9
2022-08-22T09:08:08.587Z,7.4
2022-08-22T09:09:24.822Z,5.8
2022-08-22T09:10:40.092Z,7.3
2022-08-22T09:11:56.311Z,7.7
2022-08-22T09:13:12.562Z,8.3
2022-08-22T09:14:28.807Z,6.4
2022-08-22T09:15:45.032Z,7.2
2022-08-22T09:17:01.288Z,7.4
2022-08-22T09:18:17.527Z,8.1
2022-08-22T09:19:33.762Z,7.5
2022-08-22T09:20:49.028Z,6.8
2022-08-22T09:22:04.282Z,7.8
2022-08-22T09:23:20.524Z,6
2022-08-22T09:24:36.754Z,6.3
2022-08-22T09:25:53.000Z,7.8
2022-08-22T09:27:09.249Z,8.5
2022-08-22T09:28:25.469Z,7.5
2022-08-22T09:29:41.730Z,8.2
2022-08-22T09:30:57.954Z,7
2022-08-22T09:32:14.191Z,6.7
2022-08-22T09:33:30.447Z,6.5
2022-08-22T09:34:46.674Z,7.7
2022-08-22T09:36:02.925Z,7.2
2022-08-22T09:37:19.151Z,8.9
2022-08-22T09:38:34.000Z,6.2
2022-08-22T09:39:50.645Z,7.1
2022-08-22T09:41:06.903Z,6.1
2022-08-22T09:42:23.130Z,6.4
2022-08-22T09:43:39.371Z,8
2022-08-22T09:44:55.607Z,6.8
2022-08-22T09:46:11.863Z,6.5
2022-08-22T09:47:28.105Z,6.4
2022-08-22T09:50:00.579Z,5.9
2022-08-22T09:51:16.816Z,7
2022-08-22T09:52:33.059Z,7
2022-08-22T09:53:49.297Z,5.4
2022-08-22T09:55:04.548Z,6.7
2022-08-22T09:56:20.000Z,6.4
2022-08-22T09:57:37.028Z,5.8
2022-08-22T09:58:53.284Z,7.6
2022-08-22T10:00:09.523Z,6
2022-08-22T10:01:25.760Z,6.4
2022-08-22T10:02:41.986Z,7.1
2022-08-22T10:03:58.225Z,5.6
2022-08-22T10:05:14.475Z,7
2022-08-22T10:06:30.721Z,6.8
2022-08-22T10:07:46.954Z,6.2
2022-08-22T10:09:03.191Z,6
2022-08-22T10:10:19.445Z,7.6
2022-08-22T10:11:34.684Z,7.6
2022-08-22T10:12:50.935Z,5.4
2022-08-22T10:14:07.166Z,6.3
2022-08-22T10:15:23.405Z,6.7
2022-08-22T10:16:39.647Z,5.9
2022-08-22T10:17:55.891Z,7.6
2022-08-22T10:19:12.124Z,7.7
2022-08-22T10:20:28.382Z,5.7
2022-08-22T10:21:44.621Z,7.4
2022-08-22T10:23:00.849Z,6.9
2022-08-22T10:24:17.092Z,7.5
2022-08-22T10:25:33.333Z,7.2
2022-08-22T10:26:49.585Z,7
2022-08-22T10:28:04.832Z,8.8
2022-08-22T10:29:21.079Z,8
2022-08-22T10:30:37.312Z,9
2022-08-22T10:31:53.550Z,8.7
2022-08-22T10:33:09.784Z,8.1
2022-08-22T10:34:26.034Z,6.8
2022-08-22T10:35:42.266Z,7.7
2022-08-22T10:36:58.506Z,9.8
2022-08-22T10:38:13.772Z,7.9
2022-08-22T10:39:30.007Z,8.4
2022-08-22T10:40:46.262Z,9.2
2022-08-22T10:42:02.499Z,8
2022-08-22T10:43:18.734Z,9.3
2022-08-22T10:44:34.974Z,8.3
2022-08-22T10:45:51.210Z,8.4
2022-08-22T10:47:07.452Z,8.6
2022-08-22T10:48:23.688Z,8.5
2022-08-22T10:50:56.183Z,9
2022-08-22T10:52:12.428Z,8.4
2022-08-22T10:53:28.650Z,8.5
2022-08-22T10:54:43.913Z,8
2022-08-22T10:56:00.155Z,7.9
2022-08-22T10:57:16.391Z,8.1
2022-08-22T10:58:32.646Z,7.5
2022-08-22T10:59:48.872Z,7.4
2022-08-22T11:01:05.127Z,8.1
2022-08-22T11:02:21.360Z,8.1
2022-08-22T11:03:37.607Z,7.8
2022-08-22T11:04:53.839Z,6.9
2022-08-22T11:06:10.074Z,7.3
2022-08-22T11:07:26.309Z,7.7
2022-08-22T11:08:42.555Z,8
2022-08-22T11:09:58.807Z,8.2
2022-08-22T11:11:15.046Z,7.7
2022-08-22T11:12:30.293Z,8.4
2022-08-22T11:13:46.534Z,7.5
2022-08-22T11:15:02.766Z,6
2022-08-22T11:16:19.014Z,6.7
2022-08-22T11:17:35.247Z,6.7
2022-08-22T11:18:51.491Z,6.6
2022-08-22T11:20:07.731Z,6.9
2022-08-22T11:21:23.000Z,8.3
2022-08-22T11:22:40.216Z,7.7
2022-08-22T11:23:56.456Z,7.3
2022-08-22T11:25:12.690Z,7.9
2022-08-22T11:26:28.945Z,7.2
2022-08-22T11:27:45.174Z,8.1
2022-08-22T11:29:00.444Z,9.2
2022-08-22T11:30:16.669Z,7.1
2022-08-22T11:31:32.908Z,8.1
2022-08-22T11:32:49.158Z,7.6
2022-08-22T11:34:05.401Z,7.5
2022-08-22T11:35:21.634Z,7.2
2022-08-22T11:36:37.881Z,8.5
2022-08-22T11:37:54.116Z,7.7
2022-08-22T11:39:10.348Z,7.2
2022-08-22T11:40:26.588Z,7.8
2022-08-22T11:41:42.837Z,8.7
2022-08-22T11:42:59.070Z,11.1
2022-08-22T11:44:15.311Z,8
2022-08-22T11:45:30.578Z,7.6
2022-08-22T11:46:46.811Z,7.1
2022-08-22T11:48:03.060Z,7.9
2022-08-22T11:49:19.304Z,9.2
2022-08-22T11:50:35.535Z,7.5
2022-08-22T11:51:51.766Z,7.8
2022-08-22T11:53:08.011Z,7.4
2022-08-22T11:54:24.255Z,7.6
2022-08-22T11:55:40.490Z,7.9
2022-08-22T11:56:56.726Z,7.6
2022-08-22T11:58:12.975Z,8.4
2022-08-22T11:59:29.212Z,7.9
2022-08-22T12:00:45.451Z,8.6
2022-08-22T12:02:00.719Z,8.2
2022-08-22T12:03:16.950Z,8.5
2022-08-22T12:04:33.198Z,8.5
2022-08-22T12:07:05.669Z,8.2
2022-08-22T12:09:38.163Z,7.6
2022-08-22T12:10:54.394Z,7.6
2022-08-22T12:12:10.644Z,8.7
2022-08-22T12:13:26.885Z,7.6
2022-08-22T12:14:43.107Z,7.7
2022-08-22T12:15:59.347Z,6.9
2022-08-22T12:17:15.585Z,8.2
2022-08-22T12:18:30.844Z,7.8
2022-08-22T12:19:47.086Z,8.2
2022-08-22T12:21:03.323Z,6.3
2022-08-22T12:27:24.523Z,7.1
2022-08-22T12:28:39.801Z,7.3
2022-08-22T12:29:55.045Z,7.9
2022-08-22T12:33:43.773Z,7.1
2022-08-22T12:35:00.005Z,7.2
2022-08-22T12:37:32.494Z,7.4
2022-08-22T12:38:48.736Z,7.5
2022-08-22T12:40:04.969Z,7.2
2022-08-22T12:41:21.217Z,8.3
2022-08-22T12:42:37.452Z,8.3
2022-08-22T12:43:53.704Z,8.5
2022-08-22T12:45:09.936Z,7.5
2022-08-22T12:46:25.203Z,6.7
2022-08-22T12:47:40.461Z,8
2022-08-22T12:48:56.696Z,6.6
2022-08-22T12:50:12.925Z,10
2022-08-22T12:51:29.163Z,6.5
2022-08-22T12:52:45.408Z,7.4
2022-08-22T12:54:01.643Z,8.5
2022-08-22T12:55:17.898Z,6.9
2022-08-22T12:56:34.134Z,7.1
2022-08-22T12:57:50.382Z,7.8
2022-08-22T12:59:06.618Z,6.7
2022-08-22T13:00:21.876Z,7.8
2022-08-22T13:01:37.137Z,7.9
2022-08-22T13:02:53.383Z,6.6
2022-08-22T13:04:09.603Z,7.4
2022-08-22T13:05:25.857Z,7.7
2022-08-22T13:06:42.097Z,5.6
2022-08-22T13:07:58.341Z,7.4
2022-08-22T13:09:14.572Z,6.7
2022-08-22T13:10:30.822Z,7.2
2022-08-22T13:11:47.047Z,8.1
2022-08-22T13:13:03.287Z,7.8
2022-08-22T13:14:19.524Z,6.2
2022-08-22T13:15:34.787Z,6.9
2022-08-22T13:16:50.063Z,6.9
2022-08-22T13:18:06.297Z,6.6
2022-08-22T13:19:22.529Z,6.5
2022-08-22T13:21:55.023Z,6.8
2022-08-22T13:23:11.255Z,7.2
2022-08-22T13:24:27.501Z,7.1
2022-08-22T13:25:43.737Z,6.3
2022-08-22T13:26:59.984Z,6.6
2022-08-22T13:28:16.217Z,7.1
2022-08-22T13:29:32.445Z,6.7
2022-08-22T13:30:48.685Z,6.9
2022-08-22T13:32:04.927Z,7.5
2022-08-22T13:33:20.191Z,6.9
2022-08-22T13:34:36.431Z,6.3
2022-08-22T13:35:52.664Z,6.7
2022-08-22T13:37:08.916Z,7
2022-08-22T13:38:25.154Z,6.7
2022-08-22T13:39:41.392Z,6.2
2022-08-22T13:40:57.644Z,6.4
2022-08-22T13:42:13.879Z,6.5
2022-08-22T13:43:30.126Z,7.8
2022-08-22T13:44:46.356Z,7.2
2022-08-22T13:46:02.600Z,7
2022-08-22T13:48:35.081Z,7
2022-08-22T13:49:50.322Z,7.1
2022-08-22T13:51:06.575Z,7.4
2022-08-22T13:52:22.822Z,7.4
2022-08-22T13:53:39.054Z,7.2
2022-08-22T13:54:55.299Z,6.9
2022-08-22T13:56:11.534Z,6.2
2022-08-22T13:57:27.779Z,5.8
2022-08-22T13:58:44.025Z,6.7
2022-08-22T14:00:00.251Z,7
2022-08-22T14:01:16.487Z,7.6
2022-08-22T14:02:32.729Z,8.3
2022-08-22T14:03:48.969Z,6.3
2022-08-22T14:05:05.222Z,7.3
2022-08-22T14:06:20.481Z,5.5
2022-08-22T14:08:52.950Z,7.4
2022-08-22T14:10:09.193Z,7.6
2022-08-22T14:11:25.435Z,6.6
2022-08-22T14:12:41.667Z,7.9
2022-08-22T14:13:57.923Z,6.4
2022-08-22T14:15:14.144Z,6.3
2022-08-22T14:16:30.403Z,7.5
2022-08-22T14:17:46.625Z,6.1
2022-08-22T14:19:02.878Z,6.8
2022-08-22T14:20:19.120Z,6.6
2022-08-22T14:21:35.362Z,7.7
2022-08-22T14:24:06.843Z,6.9
2022-08-22T14:25:23.098Z,7.1
2022-08-22T14:26:39.334Z,6.8
2022-08-22T14:27:55.565Z,7
2022-08-22T14:29:11.813Z,6.7
2022-08-22T14:31:44.291Z,5.6
2022-08-22T14:32:59.563Z,6.5
2022-08-22T14:34:14.814Z,5.9
2022-08-22T14:35:31.053Z,6.3
2022-08-22T14:36:47.293Z,6.4
2022-08-22T14:38:03.527Z,7.8
2022-08-22T14:39:19.775Z,6.5
2022-08-22T14:40:35.990Z,7.1
2022-08-22T14:41:52.247Z,6.6
2022-08-22T14:43:08.477Z,6.7
2022-08-22T14:44:24.730Z,6.8
2022-08-22T14:45:40.958Z,5.7
2022-08-22T14:46:56.214Z,6.5
2022-08-22T14:48:11.477Z,6.7
2022-08-22T14:49:27.712Z,6.6
2022-08-22T14:50:43.968Z,6.2
2022-08-22T14:52:00.208Z,6.9
2022-08-22T14:54:31.708Z,7.4
2022-08-22T14:55:46.955Z,6.6
2022-08-22T14:57:03.199Z,7.6
2022-08-22T14:58:19.432Z,6.4
2022-08-22T14:59:35.689Z,5.5
2022-08-22T15:02:08.158Z,6.6
2022-08-22T15:03:24.400Z,7.2
2022-08-22T15:04:39.671Z,6.7
2022-08-22T15:05:54.910Z,6.5
2022-08-22T15:07:11.159Z,7.1
2022-08-22T15:08:27.403Z,6.9
2022-08-22T15:09:43.648Z,7.1
2022-08-22T15:10:59.880Z,6.8
2022-08-22T15:12:16.126Z,6.5
2022-08-22T15:13:32.371Z,7.2
2022-08-22T15:14:48.610Z,7
2022-08-22T15:16:04.844Z,7
2022-08-22T15:17:21.080Z,6.6
2022-08-22T15:18:36.339Z,7.1
2022-08-22T15:19:51.597Z,8.3
2022-08-22T15:21:07.831Z,6.1
2022-08-22T15:22:24.078Z,7.7
2022-08-22T15:23:40.316Z,7.6
2022-08-22T15:24:56.570Z,6.7
2022-08-22T15:27:29.041Z,7.2
2022-08-22T15:28:45.281Z,6.3
2022-08-22T15:30:01.528Z,6.3
2022-08-22T15:31:17.763Z,5.9
2022-08-22T15:32:34.006Z,6.9
2022-08-22T15:33:50.252Z,6.1
2022-08-22T15:35:06.480Z,6.4
2022-08-22T15:36:21.732Z,7.2
2022-08-22T15:37:37.973Z,6.5
2022-08-22T15:40:10.464Z,5.4
2022-08-22T15:41:25.726Z,6.7
2022-08-22T15:42:40.980Z,7.1
2022-08-22T15:43:57.000Z,6.4
2022-08-22T15:45:13.456Z,6
2022-08-22T15:47:45.937Z,7
2022-08-22T15:49:02.177Z,7.1
2022-08-22T15:50:18.416Z,6.5
2022-08-22T15:51:34.651Z,7.7
2022-08-22T15:52:50.906Z,5.7
2022-08-22T15:54:07.141Z,7.8
2022-08-22T15:55:23.377Z,8
2022-08-22T15:56:39.619Z,5.6
2022-08-22T15:57:55.863Z,7.1
2022-08-22T15:59:11.120Z,6.5
2022-08-22T16:00:27.363Z,7.6
2022-08-22T16:02:59.843Z,6.7
2022-08-22T16:04:15.103Z,5.7
2022-08-22T16:05:30.364Z,6.2
2022-08-22T16:06:46.603Z,6.7
2022-08-22T16:08:02.846Z,7.5
2022-08-22T16:10:35.310Z,6.3
2022-08-22T16:11:51.562Z,6.1
2022-08-22T16:13:07.793Z,6.8
2022-08-22T16:14:24.032Z,5.8
2022-08-22T16:15:40.275Z,6.8
2022-08-22T16:18:12.765Z,6.8
2022-08-22T16:20:45.243Z,7.1
2022-08-22T16:22:00.484Z,5.7
2022-08-22T16:23:16.724Z,5.6
2022-08-22T16:24:32.967Z,6.5
2022-08-22T16:25:49.223Z,6.4
2022-08-22T16:27:05.462Z,6.4
2022-08-22T16:28:21.696Z,6.6
2022-08-22T16:29:37.933Z,6.9
2022-08-22T16:30:54.182Z,5.8
2022-08-22T16:33:26.658Z,6.8
2022-08-22T16:34:42.890Z,6.4
2022-08-22T16:35:59.127Z,6.6
2022-08-22T16:37:15.367Z,6.5
2022-08-22T16:38:30.629Z,6.8
2022-08-22T16:39:46.860Z,6.1
2022-08-22T16:41:03.104Z,7.2
2022-08-22T16:42:19.360Z,6.1
2022-08-22T16:43:35.599Z,6.1
2022-08-22T16:44:51.837Z,6.9
2022-08-22T16:46:08.080Z,5.4
2022-08-22T16:47:23.342Z,7
2022-08-22T16:48:39.571Z,5.4
2022-08-22T16:49:54.835Z,6.3
2022-08-22T16:51:11.063Z,6.5
2022-08-22T16:52:27.305Z,5.7
2022-08-22T16:53:43.549Z,5.8
2022-08-22T16:54:59.793Z,5.9
2022-08-22T16:56:16.035Z,6.6
2022-08-22T16:57:32.265Z,5
2022-08-22T16:58:48.509Z,6.2
2022-08-22T17:00:04.747Z,7
2022-08-22T17:01:20.022Z,6.2
2022-08-22T17:02:35.274Z,5.6
2022-08-22T17:03:51.509Z,6.4
2022-08-22T17:05:07.751Z,6.1
2022-08-22T17:06:23.993Z,5.6
2022-08-22T17:07:40.229Z,6.7
2022-08-22T17:08:56.472Z,6
2022-08-22T17:10:12.704Z,6.3
2022-08-22T17:11:28.946Z,5.5
2022-08-22T17:12:45.187Z,5.2
2022-08-22T17:14:01.428Z,5.6
2022-08-22T17:15:17.664Z,5.6
2022-08-22T17:16:33.899Z,5.9
2022-08-22T17:17:50.152Z,4.8
2022-08-22T17:19:05.415Z,5.6
2022-08-22T17:20:21.637Z,6.3
2022-08-22T17:21:37.886Z,5.8
2022-08-22T17:22:54.133Z,5.5
2022-08-22T17:24:10.372Z,5.6
2022-08-22T17:25:26.596Z,5.3
2022-08-22T17:26:42.845Z,6.7
2022-08-22T17:27:59.082Z,6.1
2022-08-22T17:29:15.334Z,6
2022-08-22T17:30:31.563Z,6.3
2022-08-22T17:31:47.804Z,6.2
2022-08-22T17:33:04.052Z,6.3
2022-08-22T17:34:20.289Z,6
2022-08-22T17:35:35.540Z,6.7
2022-08-22T17:36:51.790Z,6.6
2022-08-22T17:38:08.021Z,5.1
2022-08-22T17:39:24.268Z,5.9
2022-08-22T17:40:40.499Z,6.1
2022-08-22T17:41:56.742Z,6.6
2022-08-22T17:43:12.984Z,6.2
2022-08-22T17:44:29.233Z,7.7
2022-08-22T17:45:45.472Z,5.8
2022-08-22T17:47:01.699Z,6.6
2022-08-22T17:49:34.193Z,6.8
2022-08-22T17:50:50.421Z,7.1
2022-08-22T17:52:05.688Z,6
2022-08-22T17:53:21.914Z,6.8
2022-08-22T17:54:38.160Z,6.4
2022-08-22T17:55:54.412Z,5.8
2022-08-22T17:57:10.646Z,6
2022-08-22T17:58:26.877Z,7.2
2022-08-22T17:59:43.128Z,5.8
2022-08-22T18:00:59.359Z,6.1
2022-08-22T18:02:15.596Z,5.8
2022-08-22T18:03:31.842Z,5.9
2022-08-22T18:04:48.075Z,7
2022-08-22T18:06:04.315Z,7.4
2022-08-22T18:07:20.555Z,6.1
2022-08-22T18:08:35.811Z,7.7
2022-08-22T18:09:52.065Z,6.3
2022-08-22T18:12:24.540Z,6.9
2022-08-22T18:14:57.029Z,6.8
2022-08-22T18:16:12.290Z,7.3
2022-08-22T18:17:27.544Z,7.7
2022-08-22T18:18:43.779Z,6.7
2022-08-22T18:20:00.017Z,6.9
2022-08-22T18:21:16.263Z,6.7
2022-08-22T18:22:32.492Z,6.6
2022-08-22T18:23:48.745Z,7.7
2022-08-22T18:25:04.981Z,7.7
2022-08-22T18:26:21.216Z,6.9
2022-08-22T18:27:37.451Z,7.3
2022-08-22T18:28:53.699Z,7.6
2022-08-22T18:30:08.952Z,8.3
2022-08-22T18:31:25.191Z,7.5
2022-08-22T18:35:12.929Z,7.9
2022-08-22T18:36:29.168Z,7.4
2022-08-22T18:37:45.410Z,6.9
2022-08-22T18:39:01.662Z,7.4
2022-08-22T18:40:17.909Z,8
2022-08-22T18:41:34.149Z,7.7
2022-08-22T18:42:50.379Z,7.5
2022-08-22T18:44:06.628Z,7.9
2022-08-22T18:45:22.854Z,8.6